Laredo, TX (78044)

2:27 AM CST on February 13, 2016 (GMT -0600)
Vista Hermosa (Old airbase) | | Change Station
CLOSE
Current Station
Personal Weather Station
Location: Laredo, TX
Elevation: 489 ft
Nearby Weather Stations

Elev 489 ft 27.55 °N, 99.48 °W | Updated 7 seconds ago

Clear
Clear
60.3 °F
Feels Like 60.3 °F
N
2.0
Wind Variable Wind from ESE
Gusts 3.0 mph

Today
High -- | Low -- °F
--% Chance of Precip.
Yesterday
High -- | Low -- °F
Precip. -- in
Pressure 30.25 in
Visibility 10.0 miles
Clouds Clear
Dew Point 53 °F
Humidity 78%
Rainfall 0.00 in
Snow Depth Not available.
7:16 AM 6:27 PM
Waxing Crescent, 28% visible
METAR KLRD 130756Z AUTO 12006KT 10SM CLR 15/11 A3024 RMK AO2 SLP242 T01500111 TSNO
Pressure 30.25 in
Visibility 10.0 miles
Clouds Clear
Dew Point 53 °F
Humidity 78%
Rainfall 0.00 in
Snow Depth Not available.
7:16 AM 6:27 PM
Waxing Crescent, 28% visible
METAR KLRD 130756Z AUTO 12006KT 10SM CLR 15/11 A3024 RMK AO2 SLP242 T01500111 TSNO

10-Day Weather Forecast

Almanac

Astronomy

Feb. 13, 2016 Rise Set
Actual Time
Civil Twilight
Nautical Twilight
Astronomical Twilight
Moon
Length of Visible Light
Length of Day
Tomorrow will be .
, % of the Moon is Illuminated

Today's Extremes

State Highs State Lows

Community

WunderPhotos

Upload Photos

1,892,536 photos uploaded!

WunderBlog® & News

Nearby

Air Quality

  Air Quality AQ Index Pollutant
Not available.

Snow Depth

Station Depth Elevation

Earthquake Activity

City Distance Mag. Time & Date
Minimum magnitude displayed is 2.5.

Coastal Water Temperatures

Place Temperature

Stations

Nearby Weather Stations

Station Location Temp. Windchill Dew Point Humidity Wind Precip. Elev Updated Type
                   

Watches & Warnings

There are currently no watches in effect.